createdAt,value
2019-04-23T00:02:51.123Z,91.80
2019-04-23T00:05:33.604Z,92.00
2019-04-23T00:10:26.164Z,92.50
2019-04-23T00:15:21.570Z,92.60
2019-04-23T00:17:55.387Z,93.20
2019-04-23T00:20:25.823Z,93.20
2019-04-23T00:23:06.478Z,93.30
2019-04-23T00:25:54.128Z,93.30
2019-04-23T00:28:24.397Z,93.50
2019-04-23T00:31:09.681Z,93.70
2019-04-23T00:33:25.081Z,93.80
2019-04-23T00:36:02.647Z,93.80
2019-04-23T00:38:28.669Z,94.00
2019-04-23T00:40:51.416Z,94.10
2019-04-23T00:43:21.851Z,94.20
2019-04-23T00:46:08.115Z,94.40
2019-04-23T00:53:37.045Z,94.80
2019-04-23T00:58:38.157Z,94.80
2019-04-23T01:00:57.906Z,95.00
2019-04-23T01:03:25.695Z,95.60
2019-04-23T01:06:02.314Z,95.30
2019-04-23T01:08:33.277Z,95.60
2019-04-23T01:11:21.086Z,95.70
2019-04-23T01:20:56.881Z,95.50
2019-04-23T01:23:40.146Z,95.50
2019-04-23T01:26:26.521Z,95.70
2019-04-23T01:29:03.344Z,95.80
2019-04-23T01:31:33.256Z,95.70
2019-04-23T01:34:11.033Z,95.70
2019-04-23T01:36:32.987Z,95.60
2019-04-23T01:39:08.531Z,95.60
2019-04-23T01:41:33.716Z,95.70
2019-04-23T01:44:07.404Z,95.70
2019-04-23T01:46:43.864Z,95.70
2019-04-23T01:49:30.896Z,95.80
2019-04-23T01:54:12.418Z,96.20
2019-04-23T01:56:56.244Z,96.30
2019-04-23T02:01:53.181Z,96.50
2019-04-23T02:04:25.943Z,96.70
2019-04-23T02:06:45.792Z,96.80
2019-04-23T02:09:20.053Z,96.80
2019-04-23T02:11:50.608Z,97.00
2019-04-23T02:14:20.949Z,97.10
2019-04-23T02:16:49.940Z,97.20
2019-04-23T02:19:23.288Z,97.40
2019-04-23T02:22:03.755Z,97.40
2019-04-23T02:27:05.450Z,97.70
2019-04-23T02:29:54.077Z,97.90
2019-04-23T02:34:52.430Z,98.00
2019-04-23T02:37:22.657Z,97.90
2019-04-23T02:40:08.786Z,98.10
2019-04-23T02:42:28.773Z,98.10
2019-04-23T02:44:48.359Z,98.10
2019-04-23T02:49:59.265Z,98.40
2019-04-23T02:52:21.688Z,98.40
2019-04-23T02:55:31.453Z,98.70
2019-04-23T02:57:20.225Z,98.80
2019-04-23T03:02:35.025Z,99.10
2019-04-23T03:05:11.675Z,99.10
2019-04-23T03:07:33.331Z,99.20
2019-04-23T03:10:00.109Z,99.10
2019-04-23T03:15:15.059Z,99.40
2019-04-23T03:17:59.237Z,99.50
2019-04-23T03:20:32.588Z,99.60
2019-04-23T03:23:13.880Z,99.70
2019-04-23T03:25:37.525Z,99.80
2019-04-23T03:28:25.275Z,99.90
2019-04-23T03:34:13.629Z,99.90
2019-04-23T03:38:30.169Z,99.90
2019-04-23T03:40:57.207Z,99.90
2019-04-23T03:50:49.309Z,99.90
2019-04-23T03:53:34.370Z,99.90
2019-04-23T03:56:05.655Z,99.90
2019-04-23T04:04:10.749Z,99.90
2019-04-23T04:06:11.560Z,99.90
2019-04-23T04:11:11.206Z,99.90
2019-04-23T04:16:07.508Z,99.90
2019-04-23T04:21:18.502Z,99.90
2019-04-23T04:23:45.384Z,99.90
2019-04-23T04:26:14.321Z,99.90
2019-04-23T04:31:16.267Z,99.90
2019-04-23T04:36:28.154Z,99.90
2019-04-23T04:44:05.465Z,99.90
2019-04-23T04:46:32.545Z,99.90
2019-04-23T04:49:01.639Z,99.90
2019-04-23T04:51:31.425Z,99.90
2019-04-23T04:54:08.325Z,99.90
2019-04-23T04:58:52.894Z,99.90
2019-04-23T05:01:36.729Z,99.90
2019-04-23T05:03:45.880Z,99.90
2019-04-23T05:09:04.239Z,99.90
2019-04-23T05:11:35.102Z,99.90
2019-04-23T05:14:04.290Z,99.90
2019-04-23T05:16:28.690Z,99.90
2019-04-23T05:19:22.970Z,99.90
2019-04-23T05:21:46.867Z,99.90
2019-04-23T05:24:08.255Z,99.90
2019-04-23T05:26:37.523Z,99.90
2019-04-23T05:29:23.294Z,99.90
2019-04-23T05:31:42.158Z,99.90
2019-04-23T05:34:12.888Z,99.90
2019-04-23T05:36:45.506Z,99.90
2019-04-23T05:41:50.027Z,99.90
2019-04-23T05:44:21.173Z,99.90
2019-04-23T05:46:44.989Z,99.90
2019-04-23T05:49:22.318Z,99.90
2019-04-23T05:51:55.497Z,99.90
2019-04-23T05:54:26.659Z,99.90
2019-04-23T05:56:54.161Z,99.60
2019-04-23T05:59:26.237Z,99.60
2019-04-23T06:01:57.409Z,99.40
2019-04-23T06:04:30.656Z,99.10
2019-04-23T06:07:33.323Z,99.00
2019-04-23T06:14:36.173Z,98.00
2019-04-23T06:17:03.205Z,97.90
2019-04-23T06:19:24.615Z,97.60
2019-04-23T06:24:39.809Z,97.10
2019-04-23T06:27:06.786Z,96.90
2019-04-23T06:29:49.869Z,96.90
2019-04-23T06:32:06.137Z,96.20
2019-04-23T06:34:53.021Z,95.90
2019-04-23T06:37:14.608Z,95.40
2019-04-23T06:39:45.939Z,95.30
2019-04-23T06:42:23.518Z,94.60
2019-04-23T06:44:51.001Z,94.60
2019-04-23T06:47:29.344Z,94.40
2019-04-23T06:49:53.034Z,93.70
2019-04-23T06:54:55.316Z,92.90
2019-04-23T06:57:22.278Z,91.50
2019-04-23T06:59:54.147Z,92.70
2019-04-23T07:02:25.897Z,91.40
2019-04-23T07:09:58.281Z,91.60
2019-04-23T07:12:29.750Z,92.20
2019-04-23T07:15:13.367Z,91.70
2019-04-23T07:17:46.599Z,91.50
2019-04-23T07:20:04.245Z,90.10
2019-04-23T07:22:49.832Z,88.40
2019-04-23T07:25:11.869Z,89.40
2019-04-23T07:27:29.693Z,89.20
2019-04-23T07:30:23.729Z,89.30
2019-04-23T07:32:40.803Z,85.60
2019-04-23T07:35:45.362Z,88.10
2019-04-23T07:37:47.556Z,85.60
2019-04-23T07:43:03.167Z,85.70
2019-04-23T07:48:13.714Z,83.90
2019-04-23T07:50:49.380Z,81.20
2019-04-23T07:53:25.588Z,81.60
2019-04-23T07:55:56.428Z,79.20
2019-04-23T08:01:06.964Z,78.20
2019-04-23T08:03:22.610Z,78.10
2019-04-23T08:06:05.917Z,78.10
2019-04-23T08:08:24.509Z,80.50
2019-04-23T08:13:47.773Z,75.10
2019-04-23T08:16:25.960Z,76.20
2019-04-23T08:18:49.488Z,74.40
2019-04-23T08:21:14.673Z,75.00
2019-04-23T08:26:38.018Z,72.40
2019-04-23T08:31:43.911Z,72.20
2019-04-23T08:36:49.924Z,75.10
2019-04-23T08:39:21.568Z,72.80
2019-04-23T08:44:30.236Z,73.10
2019-04-23T08:47:08.761Z,69.90
2019-04-23T08:49:35.833Z,71.60
2019-04-23T08:52:10.466Z,68.00
2019-04-23T08:54:42.940Z,69.80
2019-04-23T08:57:10.430Z,70.20
2019-04-23T08:59:42.385Z,69.50
2019-04-23T09:04:42.157Z,68.90
2019-04-23T09:07:16.800Z,66.30
2019-04-23T09:09:45.922Z,67.70
2019-04-23T09:12:10.352Z,68.60
2019-04-23T09:14:38.611Z,67.70
2019-04-23T09:17:16.756Z,67.30
2019-04-23T09:19:53.369Z,67.90
2019-04-23T09:22:21.988Z,65.70
2019-04-23T09:24:48.754Z,64.50
2019-04-23T09:27:22.698Z,62.40
2019-04-23T09:29:57.973Z,64.20
2019-04-23T09:32:36.328Z,63.70
2019-04-23T09:35:10.864Z,64.20
2019-04-23T09:40:27.671Z,62.00
2019-04-23T09:42:57.291Z,65.40
2019-04-23T09:45:37.075Z,62.80
2019-04-23T09:48:17.457Z,63.20
2019-04-23T09:50:41.927Z,62.80
2019-04-23T09:53:17.639Z,62.10
2019-04-23T09:58:22.327Z,61.80
2019-04-23T10:03:09.150Z,63.50
2019-04-23T10:05:39.144Z,61.40
2019-04-23T10:08:05.052Z,62.20
2019-04-23T10:10:28.135Z,61.30
2019-04-23T10:12:58.127Z,59.90
2019-04-23T10:15:34.393Z,61.10
2019-04-23T10:18:00.279Z,58.90
2019-04-23T10:20:30.823Z,60.90
2019-04-23T10:23:02.254Z,60.50
2019-04-23T10:25:31.984Z,59.40
2019-04-23T10:28:06.620Z,59.60
2019-04-23T10:30:33.360Z,60.80
2019-04-23T10:33:03.330Z,59.90
2019-04-23T10:35:41.340Z,60.60
2019-04-23T10:38:09.985Z,60.70
2019-04-23T10:40:38.892Z,59.80
2019-04-23T10:43:07.393Z,61.40
2019-04-23T10:45:53.148Z,59.40
2019-04-23T10:49:00.693Z,59.80
2019-04-23T10:51:34.077Z,59.90
2019-04-23T10:54:26.392Z,60.30
2019-04-23T10:56:53.196Z,59.80
2019-04-23T10:59:34.985Z,58.60
2019-04-23T11:02:20.099Z,59.80
2019-04-23T11:04:47.552Z,59.60
2019-04-23T11:09:53.066Z,59.80
2019-04-23T11:12:24.226Z,62.00
2019-04-23T11:14:53.673Z,59.80
2019-04-23T11:17:27.058Z,59.30
2019-04-23T11:22:38.956Z,59.70
2019-04-23T11:24:50.629Z,58.60
2019-04-23T11:27:26.153Z,57.40
2019-04-23T11:30:05.630Z,58.40
2019-04-23T11:37:41.017Z,57.70
2019-04-23T11:42:26.224Z,57.40
2019-04-23T11:52:52.058Z,58.80
2019-04-23T11:55:18.152Z,56.90
2019-04-23T11:57:41.128Z,56.40
2019-04-23T12:00:05.929Z,58.50
2019-04-23T12:03:35.555Z,56.60
2019-04-23T12:05:35.318Z,56.70
2019-04-23T12:08:09.312Z,56.80
2019-04-23T12:10:47.866Z,56.10
2019-04-23T12:13:20.432Z,57.90
2019-04-23T12:15:46.349Z,57.70
2019-04-23T12:18:25.456Z,57.60
2019-04-23T12:20:51.100Z,56.70
2019-04-23T12:23:31.911Z,57.10
2019-04-23T12:26:07.324Z,58.20
2019-04-23T12:28:30.106Z,56.10
2019-04-23T12:33:39.085Z,54.00
2019-04-23T12:36:05.449Z,55.10
2019-04-23T12:38:30.114Z,55.40
2019-04-23T12:41:10.721Z,55.20
2019-04-23T12:43:29.047Z,55.10
2019-04-23T12:45:55.722Z,56.30
2019-04-23T12:48:46.758Z,55.10
2019-04-23T12:51:08.812Z,55.40
2019-04-23T12:53:34.738Z,54.30
2019-04-23T12:56:08.972Z,53.70
2019-04-23T12:58:34.117Z,54.70
2019-04-23T13:01:13.508Z,54.40
2019-04-23T13:03:39.290Z,52.50
2019-04-23T13:06:14.867Z,54.70
2019-04-23T13:08:44.245Z,55.00
2019-04-23T13:11:15.358Z,53.80
2019-04-23T13:16:28.091Z,55.90
2019-04-23T13:18:50.681Z,54.80
2019-04-23T13:21:46.724Z,54.00
2019-04-23T13:23:55.574Z,54.50
2019-04-23T13:26:24.785Z,52.30
2019-04-23T13:29:03.171Z,53.90
2019-04-23T13:31:30.070Z,54.40
2019-04-23T13:33:58.641Z,53.60
2019-04-23T13:36:36.332Z,55.20
2019-04-23T13:39:02.382Z,54.10
2019-04-23T13:41:31.355Z,52.50
2019-04-23T13:44:10.024Z,52.80
2019-04-23T13:46:36.577Z,53.90
2019-04-23T13:49:11.456Z,54.00
2019-04-23T13:51:39.781Z,53.70
2019-04-23T13:54:17.324Z,54.00
2019-04-23T13:57:13.100Z,53.90
2019-04-23T13:59:37.809Z,54.20
2019-04-23T14:01:41.426Z,54.40
2019-04-23T14:04:38.892Z,52.30
2019-04-23T14:06:57.405Z,52.70
2019-04-23T14:09:43.049Z,52.90
2019-04-23T14:11:58.366Z,51.70
2019-04-23T14:14:41.842Z,52.00
2019-04-23T14:17:18.691Z,52.90
2019-04-23T14:19:34.336Z,53.00
2019-04-23T14:25:04.865Z,53.30
2019-04-23T14:27:14.946Z,52.00
2019-04-23T14:29:48.314Z,52.70
2019-04-23T14:32:20.857Z,54.60
2019-04-23T14:34:58.525Z,53.70
2019-04-23T14:39:45.698Z,52.90
2019-04-23T14:42:35.209Z,53.60
2019-04-23T14:45:07.817Z,54.40
2019-04-23T14:55:51.083Z,53.20
2019-04-23T14:58:17.505Z,54.30
2019-04-23T15:03:19.941Z,55.00
2019-04-23T15:05:56.208Z,56.20
2019-04-23T15:08:25.086Z,54.30
2019-04-23T15:10:57.067Z,55.60
2019-04-23T15:13:22.958Z,55.80
2019-04-23T15:15:55.075Z,55.70
2019-04-23T15:23:51.420Z,56.30
2019-04-23T15:27:10.368Z,56.00
2019-04-23T15:28:21.498Z,56.60
2019-04-23T15:31:23.513Z,56.80
2019-04-23T15:33:54.398Z,57.40
2019-04-23T15:38:53.781Z,57.10
2019-04-23T15:41:23.710Z,57.70
2019-04-23T15:44:02.014Z,58.30
2019-04-23T15:46:25.339Z,58.60
2019-04-23T15:49:01.216Z,58.40
2019-04-23T15:53:56.404Z,58.60
2019-04-23T15:56:37.096Z,59.20
2019-04-23T16:01:34.645Z,57.80
2019-04-23T16:03:33.333Z,59.60
2019-04-23T16:06:04.703Z,61.20
2019-04-23T16:11:39.703Z,61.00
2019-04-23T16:14:17.345Z,61.30
2019-04-23T16:16:37.391Z,61.30
2019-04-23T16:24:17.589Z,62.20
2019-04-23T16:29:32.794Z,63.30
2019-04-23T16:32:04.221Z,63.70
2019-04-23T16:34:34.049Z,64.40
2019-04-23T16:37:08.512Z,65.50
2019-04-23T16:39:37.763Z,64.10
2019-04-23T16:42:17.622Z,64.90
2019-04-23T16:47:46.730Z,66.30
2019-04-23T16:50:18.281Z,66.90
2019-04-23T16:52:42.413Z,67.40
2019-04-23T16:55:34.500Z,67.90
2019-04-23T17:02:59.891Z,69.00
2019-04-23T17:08:11.970Z,70.40
2019-04-23T17:10:36.661Z,71.10
2019-04-23T17:12:58.011Z,72.20
2019-04-23T17:15:27.422Z,73.10
2019-04-23T17:17:56.158Z,74.10
2019-04-23T17:20:30.709Z,74.70
2019-04-23T17:25:26.441Z,77.30
2019-04-23T17:28:05.595Z,77.20
2019-04-23T17:30:32.472Z,77.70
2019-04-23T17:36:07.406Z,79.60
2019-04-23T17:41:08.248Z,80.30
2019-04-23T17:43:42.353Z,81.20
2019-04-23T17:46:05.046Z,82.60
2019-04-23T17:48:38.076Z,83.10
2019-04-23T17:51:15.955Z,83.70
2019-04-23T17:54:04.943Z,84.90
2019-04-23T17:56:35.946Z,85.40
2019-04-23T18:01:22.166Z,86.80
2019-04-23T18:24:16.738Z,90.80
2019-04-23T18:27:02.383Z,90.90
2019-04-23T18:29:43.877Z,91.00
2019-04-23T18:32:29.131Z,91.40
2019-04-23T18:39:57.631Z,91.90
2019-04-23T18:42:33.007Z,91.80
2019-04-23T18:44:57.379Z,91.90
2019-04-23T18:47:45.539Z,92.00
2019-04-23T18:50:03.885Z,92.20
2019-04-23T18:52:40.874Z,92.30
2019-04-23T18:55:04.508Z,92.40
2019-04-23T18:57:41.783Z,92.60
2019-04-23T19:00:06.001Z,92.60
2019-04-23T19:05:41.285Z,92.90
2019-04-23T19:10:48.654Z,93.00
2019-04-23T19:13:22.438Z,93.10
2019-04-23T19:18:21.003Z,93.30
2019-04-23T19:23:27.292Z,93.50
2019-04-23T19:25:51.849Z,93.50
2019-04-23T19:28:44.846Z,93.50
2019-04-23T19:31:14.720Z,93.60
2019-04-23T19:33:38.287Z,93.80
2019-04-23T19:36:14.594Z,94.00
2019-04-23T19:38:35.097Z,94.00
2019-04-23T19:41:02.108Z,94.00
2019-04-23T19:46:15.603Z,94.30
2019-04-23T19:48:57.812Z,94.50
2019-04-23T19:51:08.664Z,94.60
2019-04-23T19:58:44.882Z,94.90
2019-04-23T20:03:49.575Z,94.90
2019-04-23T20:06:18.954Z,95.00
2019-04-23T20:09:21.978Z,95.20
2019-04-23T20:16:30.566Z,95.30
2019-04-23T20:21:28.314Z,95.50
2019-04-23T20:39:21.476Z,95.80
2019-04-23T20:42:07.753Z,95.80
2019-04-23T20:44:37.347Z,95.80
2019-04-23T20:54:43.168Z,96.00
2019-04-23T20:57:31.616Z,96.00
2019-04-23T20:59:56.711Z,96.10
2019-04-23T21:02:54.670Z,96.10
2019-04-23T21:07:49.203Z,96.10
2019-04-23T21:10:22.117Z,96.00
2019-04-23T21:17:55.921Z,96.20
2019-04-23T21:22:51.452Z,96.10
2019-04-23T21:25:14.410Z,96.30
2019-04-23T21:27:57.246Z,96.40
2019-04-23T21:30:58.508Z,96.40
2019-04-23T21:33:11.669Z,96.40
2019-04-23T21:36:12.506Z,96.50
2019-04-23T21:38:46.316Z,96.70
2019-04-23T21:41:17.529Z,96.70
2019-04-23T21:46:20.456Z,96.60
2019-04-23T21:49:09.174Z,96.60
2019-04-23T21:53:51.625Z,96.90
2019-04-23T22:06:43.296Z,97.10
2019-04-23T22:09:14.677Z,97.10
2019-04-23T22:14:13.076Z,97.20
2019-04-23T22:16:57.902Z,97.20
2019-04-23T22:21:47.440Z,97.30
2019-04-23T22:24:21.233Z,97.40
2019-04-23T22:26:37.981Z,97.50
2019-04-23T22:31:47.137Z,97.60
2019-04-23T22:34:17.174Z,97.40
2019-04-23T22:36:55.147Z,97.50
2019-04-23T22:39:16.499Z,97.60
2019-04-23T22:41:59.017Z,97.70
2019-04-23T22:44:22.444Z,97.70
2019-04-23T22:46:59.638Z,97.70
2019-04-23T22:49:36.401Z,97.80
2019-04-23T22:52:08.770Z,98.00
2019-04-23T22:54:24.050Z,97.90
2019-04-23T22:57:01.298Z,98.00
2019-04-23T22:59:54.318Z,98.20
2019-04-23T23:02:26.993Z,97.90
2019-04-23T23:05:12.187Z,98.00
2019-04-23T23:07:33.112Z,98.10
2019-04-23T23:10:03.997Z,98.20
2019-04-23T23:12:31.774Z,98.20
2019-04-23T23:15:02.798Z,98.30
2019-04-23T23:17:33.171Z,98.40
2019-04-23T23:20:18.133Z,98.40
2019-04-23T23:22:39.471Z,98.40
2019-04-23T23:27:46.193Z,98.60
2019-04-23T23:30:08.846Z,98.60
2019-04-23T23:32:40.862Z,98.60
2019-04-23T23:37:44.244Z,99.00
2019-04-23T23:42:59.877Z,98.70
2019-04-23T23:45:21.584Z,98.80
2019-04-23T23:47:43.166Z,98.90
2019-04-23T23:50:35.136Z,99.00
2019-04-23T23:53:00.194Z,99.10
2019-04-23T23:57:50.920Z,99.20
